Time;durP1;ratioP1;P1;durP2;ratioP2;P2;SDS_P1;SDS_P2;PMS_P1;PMS_P2;Temp;Humidity;BMP_temperature;BMP_pressure;BME280_temperature;BME280_humidity;BME280_pressure;Samples;Min_cycle;Max_cycle;Signal;HPM_P1;HPM_P2
2023/08/13 00:01:58;;;;;;;16.05;4.10;;;17.00;49.40;;;;;;4952360;28;20136;-60
2023/08/13 00:04:24;;;;;;;22.65;5.45;;;;;;;;;;4959538;28;20066;-60
2023/08/13 00:06:52;;;;;;;14.52;4.38;;;;;;;;;;4954655;28;20509;-60
2023/08/13 00:09:18;;;;;;;21.30;4.95;;;16.90;80.40;;;;;;4964056;28;20534;-60
2023/08/13 00:11:43;;;;;;;15.00;4.30;;;16.50;78.40;;;;;;4972080;28;20047;-60
2023/08/13 00:14:09;;;;;;;17.67;4.57;;;16.90;70.80;;;;;;4966700;28;20509;-60
2023/08/13 00:16:34;;;;;;;22.17;5.72;;;16.70;76.20;;;;;;4953444;28;20450;-60
2023/08/13 00:19:00;;;;;;;17.13;5.50;;;17.00;72.50;;;;;;4955544;28;20069;-60
2023/08/13 00:21:26;;;;;;;15.52;4.65;;;16.80;77.80;;;;;;4965295;28;20517;-60
2023/08/13 00:23:51;;;;;;;19.30;5.18;;;16.40;90.30;;;;;;4950865;28;20508;-60
2023/08/13 00:26:17;;;;;;;18.02;4.60;;;16.90;89.30;;;;;;4951658;28;20039;-60
2023/08/13 00:28:42;;;;;;;17.73;4.60;;;17.00;90.00;;;;;;4955880;28;20394;-60
2023/08/13 00:31:08;;;;;;;17.13;4.95;;;16.60;90.60;;;;;;4939585;28;20134;-60
2023/08/13 00:33:34;;;;;;;19.13;4.68;;;17.00;91.50;;;;;;4959560;28;20477;-60
2023/08/13 00:36:00;;;;;;;17.63;5.35;;;17.20;81.60;;;;;;4958931;28;20053;-60
2023/08/13 00:38:26;;;;;;;17.63;4.55;;;;;;;;;;4957621;28;20178;-60
2023/08/13 00:40:51;;;;;;;17.48;4.30;;;16.90;68.20;;;;;;4963536;28;20035;-60
2023/08/13 00:43:17;;;;;;;18.38;4.85;;;17.20;80.40;;;;;;4954933;28;20114;-60
2023/08/13 00:45:43;;;;;;;25.48;5.03;;;17.20;70.90;;;;;;4958270;28;20101;-60
2023/08/13 00:48:09;;;;;;;13.35;4.07;;;17.10;69.30;;;;;;4957620;28;20456;-60
2023/08/13 00:50:35;;;;;;;18.88;4.65;;;17.00;73.80;;;;;;4959165;28;20055;-60
2023/08/13 00:53:03;;;;;;;14.52;4.57;;;17.20;87.20;;;;;;4948194;28;20049;-60
2023/08/13 00:55:30;;;;;;;14.93;4.65;;;16.80;84.60;;;;;;4955829;28;20181;-60
2023/08/13 00:57:55;;;;;;;18.17;4.60;;;17.10;83.10;;;;;;4951923;28;20120;-60
2023/08/13 01:00:21;;;;;;;23.73;5.22;;;17.00;90.60;;;;;;4956306;28;20078;-60
2023/08/13 01:02:48;;;;;;;16.60;4.63;;;16.80;79.20;;;;;;4943408;28;20166;-60
2023/08/13 01:05:14;;;;;;;20.20;5.72;;;17.00;97.50;;;;;;4947940;28;20071;-60
2023/08/13 01:07:43;;;;;;;15.93;4.18;;;17.10;99.90;;;;;;4956762;28;20446;-60
2023/08/13 01:10:26;;;;;;;20.10;4.82;;;16.80;97.80;;;;;;4962148;28;20035;-60
2023/08/13 01:13:13;;;;;;;15.27;4.28;;;17.80;92.50;;;;;;4962801;28;20038;-60
2023/08/13 01:15:42;;;;;;;17.60;4.60;;;17.10;90.20;;;;;;4960238;28;20051;-60
2023/08/13 01:18:09;;;;;;;24.20;5.20;;;17.50;93.30;;;;;;4961356;28;20054;-60
2023/08/13 01:20:39;;;;;;;19.40;5.32;;;17.80;90.70;;;;;;4957750;28;20046;-60
2023/08/13 01:23:05;;;;;;;18.15;4.88;;;17.50;95.50;;;;;;4965195;28;20551;-60
2023/08/13 01:25:32;;;;;;;15.00;4.55;;;17.40;97.00;;;;;;4950598;28;20042;-60
2023/08/13 01:28:23;;;;;;;16.85;4.53;;;17.00;97.90;;;;;;4958083;28;20041;-60
2023/08/13 01:31:11;;;;;;;15.15;3.97;;;17.10;96.90;;;;;;4951545;28;20035;-60
2023/08/13 01:33:42;;;;;;;16.35;4.80;;;17.00;99.90;;;;;;4961806;28;20068;-60
2023/08/13 01:36:08;;;;;;;18.23;5.88;;;17.40;99.90;;;;;;4956434;28;20464;-60
2023/08/13 01:38:35;;;;;;;17.35;4.88;;;17.60;99.90;;;;;;4954214;28;20468;-60
2023/08/13 01:41:02;;;;;;;17.85;4.38;;;17.60;99.90;;;;;;4961231;28;20420;-60
2023/08/13 01:43:28;;;;;;;19.38;4.25;;;17.10;99.90;;;;;;4957667;28;20047;-60
2023/08/13 01:45:53;;;;;;;16.88;4.40;;;17.30;99.90;;;;;;4956168;28;20042;-60
2023/08/13 01:48:19;;;;;;;18.55;5.00;;;17.60;99.90;;;;;;4958808;28;20114;-60
2023/08/13 01:50:45;;;;;;;19.90;4.60;;;17.60;99.90;;;;;;4967567;28;20057;-59
2023/08/13 01:53:10;;;;;;;13.85;4.03;;;17.60;99.90;;;;;;4961257;28;20476;-60
2023/08/13 01:55:36;;;;;;;22.63;4.78;;;17.60;99.90;;;;;;4958720;28;20085;-60
2023/08/13 01:58:02;;;;;;;18.50;5.43;;;17.50;99.90;;;;;;4954900;28;20034;-60
2023/08/13 02:00:28;;;;;;;16.73;5.30;;;17.30;99.90;;;;;;4954816;28;20085;-59
2023/08/13 02:02:55;;;;;;;17.75;4.85;;;17.10;99.90;;;;;;4956423;28;20517;-59
2023/08/13 02:05:21;;;;;;;20.08;4.80;;;17.60;99.90;;;;;;4953316;28;20050;-60
2023/08/13 02:07:46;;;;;;;16.67;4.18;;;17.20;99.90;;;;;;4956893;28;20408;-59
2023/08/13 02:10:12;;;;;;;17.90;4.43;;;17.80;99.90;;;;;;4951774;28;20097;-60
2023/08/13 02:12:39;;;;;;;14.57;4.68;;;17.80;99.90;;;;;;4947429;28;20031;-60
2023/08/13 02:15:05;;;;;;;22.92;4.90;;;17.40;99.90;;;;;;4964424;28;20058;-59
2023/08/13 02:17:31;;;;;;;19.88;4.93;;;17.30;99.90;;;;;;4969016;28;20493;-60
2023/08/13 02:19:56;;;;;;;18.15;5.28;;;17.60;99.90;;;;;;4967041;28;20305;-60
2023/08/13 02:22:22;;;;;;;18.42;5.30;;;17.30;99.90;;;;;;4982416;28;20046;-60
2023/08/13 02:24:48;;;;;;;17.10;4.82;;;17.40;99.90;;;;;;4965019;28;20066;-60
2023/08/13 02:27:14;;;;;;;22.77;5.25;;;17.40;99.90;;;;;;4966397;28;20090;-60
2023/08/13 02:29:39;;;;;;;19.63;5.07;;;16.80;99.90;;;;;;4966366;28;20043;-60
2023/08/13 02:32:05;;;;;;;15.65;4.57;;;17.00;99.90;;;;;;4969438;28;20043;-60
2023/08/13 02:34:44;;;;;;;18.02;4.72;;;17.10;99.90;;;;;;4965323;28;20045;-60
2023/08/13 02:37:10;;;;;;;22.27;4.72;;;17.20;99.90;;;;;;4965696;28;20042;-59
2023/08/13 02:39:36;;;;;;;24.40;5.18;;;;;;;;;;4963868;28;20058;-60
2023/08/13 02:42:04;;;;;;;18.33;4.28;;;16.90;99.90;;;;;;4966343;28;20126;-60
2023/08/13 02:44:30;;;;;;;19.65;5.38;;;16.40;99.90;;;;;;4962330;28;20489;-60
2023/08/13 02:46:56;;;;;;;15.13;4.10;;;;;;;;;;4954693;28;20045;-60
2023/08/13 02:49:21;;;;;;;26.98;5.32;;;17.20;99.90;;;;;;4949179;28;20448;-60
2023/08/13 02:51:47;;;;;;;17.90;4.97;;;16.90;99.90;;;;;;4946842;28;20097;-60
2023/08/13 02:54:13;;;;;;;18.40;4.90;;;17.00;99.90;;;;;;4944808;28;20043;-60
2023/08/13 02:56:40;;;;;;;14.75;4.13;;;16.60;99.90;;;;;;4955537;28;20733;-60
2023/08/13 02:59:06;;;;;;;18.90;5.35;;;17.00;99.90;;;;;;4947914;28;20042;-59
2023/08/13 03:01:32;;;;;;;17.15;5.80;;;17.10;99.90;;;;;;4946016;28;20046;-60
2023/08/13 03:04:00;;;;;;;20.23;5.10;;;16.40;99.90;;;;;;4962020;28;20054;-60
2023/08/13 03:06:26;;;;;;;16.02;4.30;;;16.30;99.90;;;;;;4948308;28;20057;-60
2023/08/13 03:08:52;;;;;;;19.10;4.75;;;16.70;99.90;;;;;;4946596;28;20417;-60
2023/08/13 03:11:17;;;;;;;18.35;5.53;;;17.00;99.90;;;;;;4951101;28;20626;-60
2023/08/13 03:13:44;;;;;;;15.75;4.90;;;17.10;99.90;;;;;;4951177;28;20221;-60
2023/08/13 03:16:10;;;;;;;16.25;4.50;;;;;;;;;;4948974;28;20050;-60
2023/08/13 03:18:36;;;;;;;20.23;4.82;;;16.60;99.90;;;;;;4953873;28;20468;-60
2023/08/13 03:21:02;;;;;;;17.55;4.75;;;17.10;99.90;;;;;;4960366;28;20035;-60
2023/08/13 03:23:29;;;;;;;19.02;5.10;;;16.40;99.90;;;;;;4961201;28;20334;-60
2023/08/13 03:25:54;;;;;;;20.92;5.00;;;16.20;99.90;;;;;;4958193;28;20051;-60
2023/08/13 03:28:20;;;;;;;18.67;5.07;;;16.60;99.90;;;;;;4964879;28;20117;-60
2023/08/13 03:30:46;;;;;;;19.17;4.68;;;16.80;99.90;;;;;;4961381;28;20045;-60
2023/08/13 03:33:11;;;;;;;19.27;4.70;;;16.30;99.90;;;;;;4963997;28;20046;-60
2023/08/13 03:35:37;;;;;;;20.20;5.97;;;16.90;99.90;;;;;;4956733;28;20047;-60
2023/08/13 03:38:04;;;;;;;17.20;5.13;;;17.00;99.90;;;;;;4968091;28;20086;-60
2023/08/13 03:40:29;;;;;;;16.30;5.05;;;16.60;99.90;;;;;;4972255;28;20034;-60
2023/08/13 03:42:55;;;;;;;25.35;5.57;;;17.00;99.90;;;;;;4962640;28;20061;-60
2023/08/13 03:45:21;;;;;;;18.02;4.90;;;16.80;99.90;;;;;;4956210;28;20516;-60
2023/08/13 03:47:46;;;;;;;21.40;5.00;;;17.30;99.90;;;;;;4963422;28;20043;-60
2023/08/13 03:50:12;;;;;;;20.60;5.10;;;17.30;99.90;;;;;;4963577;28;20054;-60
2023/08/13 03:52:37;;;;;;;13.43;4.63;;;17.30;99.90;;;;;;4961698;28;20390;-60
2023/08/13 03:55:06;;;;;;;20.63;4.63;;;;;;;;;;4966189;28;20047;-60
2023/08/13 03:57:32;;;;;;;24.38;5.18;;;;;;;;;;4959291;28;20073;-60
2023/08/13 03:59:58;;;;;;;19.27;4.63;;;17.10;99.90;;;;;;4955414;28;20043;-60
2023/08/13 04:02:25;;;;;;;16.88;5.38;;;17.30;99.90;;;;;;4970733;28;20043;-60
2023/08/13 04:04:50;;;;;;;20.70;5.90;;;17.10;99.90;;;;;;4950276;28;20475;-59
2023/08/13 04:07:16;;;;;;;20.05;4.20;;;16.90;99.90;;;;;;4955435;28;20090;-59
2023/08/13 04:09:42;;;;;;;15.63;4.95;;;17.30;99.90;;;;;;4942798;28;20069;-60
2023/08/13 04:12:08;;;;;;;21.52;5.50;;;17.20;99.90;;;;;;4947411;28;20138;-60
2023/08/13 04:14:33;;;;;;;21.35;5.43;;;17.50;99.90;;;;;;4954922;28;20035;-63
2023/08/13 04:16:59;;;;;;;13.95;4.55;;;17.60;99.90;;;;;;4960776;28;20121;-60
2023/08/13 04:19:25;;;;;;;16.85;4.80;;;17.30;99.90;;;;;;4985908;28;20635;-60
2023/08/13 04:21:51;;;;;;;19.13;5.50;;;17.20;99.90;;;;;;4962529;28;20454;-60
2023/08/13 04:24:17;;;;;;;18.50;5.88;;;17.20;99.90;;;;;;4960047;28;20090;-60
2023/08/13 04:26:42;;;;;;;19.00;4.93;;;17.30;99.90;;;;;;4963328;28;20079;-60
2023/08/13 04:29:08;;;;;;;18.35;4.90;;;17.20;99.90;;;;;;4968512;28;20047;-60
2023/08/13 04:31:34;;;;;;;17.50;5.22;;;17.30;99.90;;;;;;4969660;28;20039;-60
2023/08/13 04:34:00;;;;;;;20.77;4.85;;;;;;;;;;4970009;28;20120;-60
2023/08/13 04:36:26;;;;;;;19.00;5.10;;;17.40;99.90;;;;;;4966566;28;20057;-60
2023/08/13 04:38:51;;;;;;;25.23;5.97;;;18.00;99.90;;;;;;4961566;28;20035;-59
2023/08/13 04:41:17;;;;;;;19.17;5.00;;;17.80;99.90;;;;;;4970728;28;20035;-60
2023/08/13 04:43:43;;;;;;;20.17;5.78;;;17.50;99.90;;;;;;4971864;28;20109;-60
2023/08/13 04:46:08;;;;;;;18.63;4.53;;;17.60;99.90;;;;;;4967147;28;20073;-60
2023/08/13 04:48:47;;;;;;;23.75;4.88;;;17.20;99.90;;;;;;4957045;28;20041;-60
2023/08/13 04:51:15;;;;;;;16.63;4.68;;;18.10;99.90;;;;;;4953144;28;20497;-60
2023/08/13 04:53:41;;;;;;;16.55;5.35;;;17.70;99.90;;;;;;4951500;28;20168;-60
2023/08/13 04:56:07;;;;;;;19.67;4.80;;;18.00;99.90;;;;;;4961097;28;20520;-60
2023/08/13 04:58:34;;;;;;;19.38;4.72;;;17.90;99.90;;;;;;4964035;28;20049;-60
2023/08/13 05:01:00;;;;;;;15.43;3.92;;;18.00;99.90;;;;;;4952063;28;20047;-60
2023/08/13 05:03:26;;;;;;;16.08;3.90;;;17.40;99.90;;;;;;4947593;28;20123;-60
2023/08/13 05:05:52;;;;;;;17.75;4.10;;;17.30;99.90;;;;;;4950039;28;20331;-60
2023/08/13 05:08:18;;;;;;;28.08;5.07;;;17.30;99.90;;;;;;4958265;28;20129;-60
2023/08/13 05:10:44;;;;;;;12.15;3.67;;;17.30;99.90;;;;;;4962539;28;20711;-60
2023/08/13 05:13:10;;;;;;;13.77;3.90;;;17.90;99.90;;;;;;4959566;28;20382;-60
2023/08/13 05:15:36;;;;;;;15.75;3.92;;;;;;;;;;4962115;28;20053;-60
2023/08/13 05:18:04;;;;;;;13.45;3.92;;;17.60;99.90;;;;;;4951777;28;20035;-60
2023/08/13 05:20:30;;;;;;;14.60;4.03;;;17.80;99.90;;;;;;4962746;28;20051;-60
2023/08/13 05:22:55;;;;;;;16.33;4.43;;;17.80;99.90;;;;;;4959406;28;20045;-60
2023/08/13 05:25:21;;;;;;;14.65;4.28;;;17.70;99.90;;;;;;4956108;28;20045;-60
2023/08/13 05:27:47;;;;;;;19.83;4.00;;;17.50;99.90;;;;;;4954942;28;20118;-60
2023/08/13 05:30:12;;;;;;;19.02;4.28;;;18.20;99.90;;;;;;4957611;28;20094;-59
2023/08/13 05:32:38;;;;;;;20.83;5.18;;;17.80;99.90;;;;;;4957126;28;20039;-60
2023/08/13 05:35:04;;;;;;;15.25;3.90;;;17.50;99.90;;;;;;4950966;28;20446;-60
2023/08/13 05:37:30;;;;;;;16.77;4.68;;;18.00;99.90;;;;;;4952018;28;20181;-60
2023/08/13 05:39:56;;;;;;;13.00;4.00;;;17.90;99.90;;;;;;4950864;28;20039;-60
2023/08/13 05:42:21;;;;;;;17.75;4.82;;;17.70;99.90;;;;;;4950803;28;20049;-60
2023/08/13 05:44:47;;;;;;;21.58;4.93;;;18.40;99.90;;;;;;4954178;28;20806;-60
2023/08/13 05:47:13;;;;;;;17.25;4.57;;;17.70;99.90;;;;;;4951914;28;20136;-58
2023/08/13 05:49:38;;;;;;;16.73;4.13;;;17.50;99.90;;;;;;4954558;28;20158;-60
2023/08/13 05:52:04;;;;;;;14.20;4.18;;;18.00;99.90;;;;;;4947852;28;20126;-60
2023/08/13 05:54:30;;;;;;;14.73;4.38;;;17.90;99.90;;;;;;4957281;28;20041;-60
2023/08/13 05:56:55;;;;;;;16.77;4.35;;;17.90;99.90;;;;;;4960962;28;20134;-60
2023/08/13 05:59:21;;;;;;;14.70;3.70;;;18.20;99.90;;;;;;4962838;28;20062;-59
2023/08/13 06:01:47;;;;;;;14.50;5.07;;;17.40;99.90;;;;;;4965509;28;20035;-60
2023/08/13 06:04:12;;;;;;;14.13;4.13;;;17.90;99.90;;;;;;4962281;28;20299;-60
2023/08/13 06:06:38;;;;;;;12.05;3.83;;;17.80;99.90;;;;;;4964889;28;20053;-60
2023/08/13 06:09:05;;;;;;;15.95;4.72;;;17.50;99.90;;;;;;4962101;28;20042;-60
2023/08/13 06:11:31;;;;;;;15.57;4.28;;;;;;;;;;4962568;28;20070;-60
2023/08/13 06:13:57;;;;;;;14.70;4.20;;;17.80;99.90;;;;;;4956635;28;20496;-60
2023/08/13 06:16:23;;;;;;;18.60;4.38;;;17.90;99.90;;;;;;4968739;28;20054;-60
2023/08/13 06:18:48;;;;;;;15.25;3.85;;;18.50;99.90;;;;;;4958497;28;20416;-60
2023/08/13 06:21:14;;;;;;;16.52;4.82;;;17.80;99.90;;;;;;4957296;28;20122;-60
2023/08/13 06:23:40;;;;;;;18.60;4.35;;;18.00;99.90;;;;;;4955707;28;20057;-60
2023/08/13 06:26:06;;;;;;;16.67;4.22;;;18.80;99.90;;;;;;4960458;28;20080;-60
2023/08/13 06:28:33;;;;;;;13.55;3.53;;;18.70;93.70;;;;;;4961353;28;20042;-60
2023/08/13 06:30:59;;;;;;;13.32;3.83;;;18.40;46.00;;;;;;4963763;28;20365;-60
2023/08/13 06:33:24;;;;;;;13.20;3.35;;;18.90;16.70;;;;;;4959103;28;20073;-59
2023/08/13 06:35:50;;;;;;;15.57;4.47;;;18.10;1.00;;;;;;4945191;28;20581;-60
2023/08/13 06:38:17;;;;;;;13.32;3.95;;;19.00;1.00;;;;;;4953704;28;20482;-60
2023/08/13 06:40:44;;;;;;;15.77;3.65;;;19.00;1.00;;;;;;4948224;28;20043;-60
2023/08/13 06:43:11;;;;;;;17.45;3.55;;;18.50;1.00;;;;;;4952365;28;20356;-60
2023/08/13 06:45:36;;;;;;;13.57;3.60;;;18.30;1.00;;;;;;4951487;28;20050;-60
2023/08/13 06:48:04;;;;;;;14.88;4.22;;;18.30;1.00;;;;;;4966460;28;20035;-60
2023/08/13 06:50:30;;;;;;;15.20;4.28;;;17.90;1.00;;;;;;4958151;28;20195;-60
2023/08/13 06:52:56;;;;;;;13.38;3.80;;;18.60;6.40;;;;;;4957729;28;20126;-60
2023/08/13 06:55:23;;;;;;;15.82;4.07;;;18.40;12.90;;;;;;4976435;28;20814;-60
2023/08/13 06:57:48;;;;;;;12.05;3.50;;;18.50;22.00;;;;;;4950217;28;20440;-60
2023/08/13 07:00:15;;;;;;;14.90;3.67;;;18.70;27.00;;;;;;4955407;28;20047;-60
2023/08/13 07:02:41;;;;;;;14.20;4.13;;;18.40;19.20;;;;;;4957325;28;20050;-60
2023/08/13 07:05:11;;;;;;;14.85;4.45;;;17.90;15.40;;;;;;4951425;28;20031;-60
2023/08/13 07:07:36;;;;;;;13.85;4.18;;;18.80;10.50;;;;;;4961435;28;20360;-61
2023/08/13 07:10:04;;;;;;;13.52;3.75;;;18.90;1.00;;;;;;4955655;28;20284;-61
2023/08/13 07:12:29;;;;;;;12.93;4.50;;;19.30;1.00;;;;;;4958351;28;20035;-61
2023/08/13 07:14:55;;;;;;;14.63;4.65;;;19.20;1.00;;;;;;4952776;28;21305;-60
2023/08/13 07:17:21;;;;;;;12.27;4.15;;;19.00;1.00;;;;;;4966232;28;20047;-60
2023/08/13 07:19:47;;;;;;;13.15;4.07;;;19.30;1.00;;;;;;4952878;28;20691;-60
2023/08/13 07:22:13;;;;;;;12.18;4.72;;;18.60;1.00;;;;;;4943745;28;20043;-60
2023/08/13 07:24:39;;;;;;;12.52;4.75;;;19.00;1.00;;;;;;4954680;28;20298;-60
2023/08/13 07:27:04;;;;;;;11.02;3.85;;;19.30;1.00;;;;;;4968597;28;20390;-61
2023/08/13 07:29:30;;;;;;;14.18;3.65;;;18.80;1.00;;;;;;4959355;28;20062;-61
2023/08/13 07:31:55;;;;;;;13.18;4.30;;;18.60;1.00;;;;;;4971432;28;20076;-61
2023/08/13 07:34:21;;;;;;;16.77;4.28;;;19.40;99.90;;;;;;4971882;28;20039;-60
2023/08/13 07:36:47;;;;;;;13.50;3.70;;;18.90;99.90;;;;;;4962305;28;20047;-61
2023/08/13 07:39:12;;;;;;;8.80;3.45;;;19.30;99.90;;;;;;4971681;28;20030;-61
2023/08/13 07:41:38;;;;;;;10.63;3.35;;;19.40;99.90;;;;;;4972551;28;20043;-61
2023/08/13 07:44:05;;;;;;;13.38;3.90;;;18.90;99.90;;;;;;4972180;28;20113;-61
2023/08/13 07:46:31;;;;;;;12.93;4.10;;;19.30;99.90;;;;;;4968384;28;20030;-61
2023/08/13 07:48:56;;;;;;;9.93;3.10;;;19.40;99.90;;;;;;4970496;28;20047;-61
2023/08/13 07:51:22;;;;;;;10.95;3.58;;;19.00;99.90;;;;;;4972460;28;20046;-61
2023/08/13 07:53:48;;;;;;;12.55;3.58;;;19.00;99.90;;;;;;4967926;28;20094;-61
2023/08/13 07:56:14;;;;;;;11.43;3.50;;;19.40;99.90;;;;;;4971074;28;20051;-61
2023/08/13 07:58:39;;;;;;;11.93;3.30;;;19.60;99.90;;;;;;4972731;28;20042;-61
2023/08/13 08:01:05;;;;;;;11.15;3.45;;;;;;;;;;4972958;28;20496;-61
2023/08/13 08:03:32;;;;;;;10.13;3.65;;;;;;;;;;4964945;28;20027;-61
2023/08/13 08:05:58;;;;;;;12.75;3.55;;;19.30;99.90;;;;;;4972847;28;20508;-61
2023/08/13 08:08:23;;;;;;;7.75;2.90;;;18.80;99.90;;;;;;4965022;28;20035;-60
2023/08/13 08:10:49;;;;;;;10.70;3.13;;;19.90;99.90;;;;;;4972772;28;20137;-61
2023/08/13 08:13:14;;;;;;;12.18;3.63;;;19.30;99.90;;;;;;4972932;28;20039;-61
2023/08/13 08:15:40;;;;;;;13.57;4.13;;;19.70;99.90;;;;;;4969843;28;20051;-61
2023/08/13 08:18:06;;;;;;;11.65;3.05;;;19.60;99.90;;;;;;4961167;28;20061;-61
2023/08/13 08:20:32;;;;;;;13.52;3.47;;;19.60;99.90;;;;;;4972034;28;20053;-61
2023/08/13 08:22:58;;;;;;;15.52;3.33;;;;;;;;;;4960692;28;20031;-61
2023/08/13 08:25:24;;;;;;;11.40;2.90;;;18.90;99.90;;;;;;4958327;28;20035;-61
2023/08/13 08:27:50;;;;;;;9.40;3.13;;;19.50;99.90;;;;;;4967831;28;20285;-61
2023/08/13 08:30:16;;;;;;;9.07;3.38;;;19.50;99.90;;;;;;4963955;28;20424;-61
2023/08/13 08:32:42;;;;;;;8.38;2.80;;;19.80;99.90;;;;;;4972336;28;20049;-61
2023/08/13 08:35:08;;;;;;;11.95;3.67;;;;;;;;;;4970865;28;20039;-60
2023/08/13 08:37:34;;;;;;;12.30;3.35;;;19.90;99.90;;;;;;4964398;28;20034;-61
2023/08/13 08:39:59;;;;;;;9.40;3.60;;;20.30;99.90;;;;;;4962949;28;20523;-61
2023/08/13 08:42:30;;;;;;;11.73;3.25;;;19.80;99.90;;;;;;4955849;28;20043;-61
2023/08/13 08:44:58;;;;;;;9.98;3.35;;;20.20;99.90;;;;;;4962660;28;20179;-61
2023/08/13 08:47:24;;;;;;;12.40;3.53;;;20.20;99.90;;;;;;4958259;28;20047;-60
2023/08/13 08:49:52;;;;;;;13.07;3.60;;;20.40;99.90;;;;;;4965271;28;20050;-61
2023/08/13 08:52:18;;;;;;;13.70;3.67;;;20.10;99.90;;;;;;4967508;28;20046;-61
2023/08/13 08:54:47;;;;;;;8.40;3.08;;;20.30;99.90;;;;;;4957915;28;20078;-61
2023/08/13 08:57:12;;;;;;;10.07;3.70;;;20.00;99.90;;;;;;4955772;28;20350;-61
2023/08/13 08:59:38;;;;;;;11.60;2.83;;;19.90;99.90;;;;;;4962652;28;20127;-61
2023/08/13 09:02:04;;;;;;;12.32;3.08;;;20.60;99.90;;;;;;4973422;28;20445;-61
2023/08/13 09:04:30;;;;;;;10.65;2.85;;;20.30;99.90;;;;;;4956799;28;20035;-61
2023/08/13 09:07:03;;;;;;;9.68;3.00;;;20.00;99.90;;;;;;4958721;28;20046;-61
2023/08/13 09:09:29;;;;;;;11.10;3.55;;;20.10;99.90;;;;;;4957811;28;20079;-61
2023/08/13 09:11:56;;;;;;;8.88;2.85;;;20.30;99.90;;;;;;4969876;28;20057;-60
2023/08/13 09:14:22;;;;;;;9.32;3.10;;;;;;;;;;4962616;28;20039;-61
2023/08/13 09:16:50;;;;;;;7.38;3.05;;;20.00;99.90;;;;;;4959490;28;21121;-61
2023/08/13 09:19:17;;;;;;;9.05;3.38;;;20.60;99.90;;;;;;4958756;28;20043;-61
2023/08/13 09:21:49;;;;;;;9.52;3.78;;;20.10;95.20;;;;;;4953518;28;20094;-61
2023/08/13 09:24:14;;;;;;;8.00;2.95;;;20.60;50.50;;;;;;4961431;28;20035;-61
2023/08/13 09:26:40;;;;;;;10.05;2.65;;;21.00;47.10;;;;;;4970792;28;20054;-61
2023/08/13 09:29:07;;;;;;;8.20;2.78;;;21.40;1.00;;;;;;4971386;28;20393;-61
2023/08/13 09:31:33;;;;;;;9.48;3.00;;;20.50;1.00;;;;;;4971357;28;20043;-61
2023/08/13 09:34:00;;;;;;;7.75;2.40;;;21.40;1.00;;;;;;4967957;28;20035;-61
2023/08/13 09:36:27;;;;;;;10.35;2.17;;;21.00;1.00;;;;;;4966015;28;20082;-61
2023/08/13 09:38:53;;;;;;;7.43;2.30;;;20.80;1.00;;;;;;4970786;28;20089;-61
2023/08/13 09:41:20;;;;;;;11.98;2.88;;;21.10;1.00;;;;;;4969923;28;20114;-61
2023/08/13 09:43:49;;;;;;;6.93;2.35;;;21.60;1.00;;;;;;4970336;28;20035;-61
2023/08/13 09:46:21;;;;;;;8.85;2.80;;;21.00;1.00;;;;;;4969392;28;20574;-61
2023/08/13 09:48:47;;;;;;;9.65;2.40;;;21.90;1.00;;;;;;4967866;28;20485;-61
2023/08/13 09:51:14;;;;;;;9.55;2.40;;;21.20;1.00;;;;;;4969672;28;20043;-61
2023/08/13 09:53:44;;;;;;;6.82;1.90;;;21.20;1.00;;;;;;4970318;28;20042;-62
2023/08/13 09:56:12;;;;;;;8.57;2.30;;;21.10;99.90;;;;;;4969786;28;20046;-61
2023/08/13 09:58:38;;;;;;;8.02;1.85;;;20.90;99.90;;;;;;4970995;28;20066;-61
2023/08/13 10:01:04;;;;;;;7.78;1.88;;;21.10;99.90;;;;;;4968805;28;20069;-61
2023/08/13 10:03:31;;;;;;;7.05;1.95;;;21.60;99.90;;;;;;4971186;28;20086;-61
2023/08/13 10:05:57;;;;;;;8.05;2.40;;;21.70;99.90;;;;;;4969340;28;20070;-60
2023/08/13 10:08:23;;;;;;;7.45;3.30;;;21.70;99.90;;;;;;4971144;28;20489;-61
2023/08/13 10:10:49;;;;;;;11.02;2.67;;;20.70;1.00;;;;;;4970260;28;20548;-61
2023/08/13 10:13:15;;;;;;;8.07;2.85;;;21.00;1.00;;;;;;4971019;28;20118;-60
2023/08/13 10:15:42;;;;;;;10.95;2.75;;;20.50;29.00;;;;;;4971268;28;20086;-61
2023/08/13 10:18:09;;;;;;;11.65;3.80;;;21.40;65.20;;;;;;4965290;28;20035;-61
2023/08/13 10:20:35;;;;;;;9.38;3.47;;;20.70;72.10;;;;;;4966644;28;20437;-61
2023/08/13 10:23:01;;;;;;;10.13;3.50;;;20.50;99.90;;;;;;4969451;28;20044;-61
2023/08/13 10:25:33;;;;;;;11.95;3.17;;;20.50;99.90;;;;;;4963625;28;20101;-61
2023/08/13 10:27:59;;;;;;;11.90;3.30;;;20.50;99.90;;;;;;4965440;28;20047;-61
2023/08/13 10:30:25;;;;;;;9.20;3.20;;;20.50;99.90;;;;;;4956414;28;20050;-61
2023/08/13 10:32:57;;;;;;;10.02;3.40;;;20.50;99.90;;;;;;4966383;28;20038;-61
2023/08/13 10:35:40;;;;;;;10.07;3.53;;;20.70;99.90;;;;;;4964321;28;20093;-61
2023/08/13 10:38:07;;;;;;;11.10;4.30;;;20.70;99.90;;;;;;4967745;28;20034;-61
2023/08/13 10:40:34;;;;;;;11.60;3.78;;;20.50;99.90;;;;;;4970274;28;20042;-61
2023/08/13 10:43:00;;;;;;;12.50;3.85;;;20.70;99.90;;;;;;4968788;28;20039;-61
2023/08/13 10:45:28;;;;;;;9.63;3.60;;;21.50;99.90;;;;;;4969881;28;20109;-61
2023/08/13 10:47:58;;;;;;;10.00;3.17;;;21.30;99.90;;;;;;4969958;28;20046;-61
2023/08/13 10:50:32;;;;;;;9.75;3.97;;;20.90;99.90;;;;;;4970898;28;20070;-61
2023/08/13 10:53:06;;;;;;;12.35;3.67;;;21.20;99.90;;;;;;4969438;28;20051;-61
2023/08/13 10:55:38;;;;;;;11.48;3.08;;;21.10;99.90;;;;;;4970618;28;20070;-61
2023/08/13 10:58:05;;;;;;;7.53;3.40;;;22.20;50.60;;;;;;4958715;28;20129;-61
2023/08/13 11:00:39;;;;;;;9.10;3.17;;;21.50;25.40;;;;;;4964353;28;20042;-61
2023/08/13 11:03:19;;;;;;;8.48;3.05;;;21.30;90.10;;;;;;4961787;28;20041;-61
2023/08/13 11:05:46;;;;;;;9.07;3.63;;;21.20;99.90;;;;;;4963265;28;20493;-61
2023/08/13 11:08:16;;;;;;;9.30;3.65;;;21.10;53.80;;;;;;4955059;28;20389;-61
2023/08/13 11:10:45;;;;;;;10.23;3.78;;;20.80;91.10;;;;;;4969289;28;20051;-61
2023/08/13 11:13:11;;;;;;;10.90;3.33;;;20.60;94.70;;;;;;4968947;28;20034;-61
2023/08/13 11:15:37;;;;;;;7.90;2.88;;;20.90;99.90;;;;;;4963854;28;20035;-61
2023/08/13 11:18:03;;;;;;;8.48;3.58;;;21.20;99.90;;;;;;4968720;28;20050;-61
2023/08/13 11:20:29;;;;;;;10.30;3.90;;;20.50;73.50;;;;;;4969027;28;20031;-60
2023/08/13 11:22:54;;;;;;;10.07;3.63;;;20.60;91.20;;;;;;4969825;28;20094;-61
2023/08/13 11:25:20;;;;;;;12.52;3.72;;;20.60;93.00;;;;;;4970414;28;20126;-61
2023/08/13 11:27:46;;;;;;;10.80;3.20;;;20.40;93.80;;;;;;4970228;28;20390;-61
2023/08/13 11:30:12;;;;;;;11.60;3.58;;;20.40;72.00;;;;;;4963754;28;20035;-61
2023/08/13 11:32:38;;;;;;;8.40;2.80;;;21.30;44.40;;;;;;4962590;28;20043;-61
2023/08/13 11:35:09;;;;;;;8.80;2.63;;;21.00;2.30;;;;;;4967275;28;20039;-61
2023/08/13 11:37:36;;;;;;;7.88;2.67;;;20.80;6.40;;;;;;4963185;28;20043;-61
2023/08/13 11:40:05;;;;;;;7.55;2.28;;;21.40;1.00;;;;;;4966288;28;20046;-61
2023/08/13 11:42:32;;;;;;;7.03;2.53;;;21.60;1.00;;;;;;4970119;28;20035;-61
2023/08/13 11:44:57;;;;;;;8.98;3.15;;;20.80;1.00;;;;;;4972013;28;20039;-61
2023/08/13 11:47:27;;;;;;;7.15;2.70;;;21.40;1.00;;;;;;4967717;28;20041;-61
2023/08/13 11:49:54;;;;;;;7.38;3.08;;;21.80;1.00;;;;;;4947734;28;20134;-61
2023/08/13 11:52:21;;;;;;;6.95;2.55;;;21.20;1.00;;;;;;4979037;28;20382;-61
2023/08/13 11:54:47;;;;;;;7.57;2.85;;;21.90;1.00;;;;;;4972072;28;20043;-61
2023/08/13 11:57:17;;;;;;;8.50;3.42;;;21.30;1.00;;;;;;4973088;28;20050;-61
2023/08/13 11:59:46;;;;;;;8.90;3.78;;;21.70;1.00;;;;;;4969153;28;20504;-61
2023/08/13 12:02:13;;;;;;;6.20;3.00;;;21.90;1.00;;;;;;4973054;28;20472;-61
2023/08/13 12:04:39;;;;;;;7.40;3.40;;;21.80;1.00;;;;;;4972886;28;20071;-61
2023/08/13 12:07:09;;;;;;;7.75;3.63;;;21.50;1.00;;;;;;4973063;28;20520;-61
2023/08/13 12:09:34;;;;;;;8.23;3.35;;;20.80;3.40;;;;;;4970691;28;20065;-61
2023/08/13 12:12:00;;;;;;;9.10;3.45;;;21.40;57.90;;;;;;4972836;28;20493;-61
2023/08/13 12:14:26;;;;;;;7.40;3.47;;;;;;;;;;4962610;28;20039;-61
2023/08/13 12:16:52;;;;;;;8.07;3.67;;;20.60;18.00;;;;;;4971829;28;20046;-61
2023/08/13 12:19:17;;;;;;;9.32;3.78;;;20.90;54.00;;;;;;4966664;28;20105;-61
2023/08/13 12:21:43;;;;;;;6.63;3.03;;;21.20;43.60;;;;;;4973066;28;20065;-61
2023/08/13 12:24:09;;;;;;;8.55;3.42;;;21.50;1.00;;;;;;4972550;28;20043;-61
2023/08/13 12:26:34;;;;;;;7.78;3.40;;;21.30;1.00;;;;;;4970887;28;20081;-61
2023/08/13 12:29:02;;;;;;;8.20;3.35;;;21.60;1.00;;;;;;4956632;28;20078;-61
2023/08/13 12:31:29;;;;;;;8.25;3.10;;;21.80;1.00;;;;;;4971246;28;20038;-61
2023/08/13 12:33:56;;;;;;;7.03;2.70;;;22.00;99.90;;;;;;4972326;28;20425;-61
2023/08/13 12:36:21;;;;;;;7.13;2.78;;;22.20;99.90;;;;;;4962957;28;20039;-61
2023/08/13 12:38:47;;;;;;;8.55;3.08;;;22.10;99.90;;;;;;4972741;28;20392;-61
2023/08/13 12:41:13;;;;;;;6.93;2.17;;;22.50;99.90;;;;;;4972160;28;20041;-61
2023/08/13 12:43:39;;;;;;;7.40;2.60;;;22.90;99.90;;;;;;4966354;28;20062;-61